sensor_id;sensor_type;location;lat;lon;timestamp;P1;durP1;ratioP1;P2;durP2;ratioP2
55539;SDS011;41384;51.418;7.286;2022-08-21T00:02:18;11.85;;;3.45;;
55539;SDS011;41384;51.418;7.286;2022-08-21T00:04:47;6.95;;;3.00;;
55539;SDS011;41384;51.418;7.286;2022-08-21T00:07:13;6.88;;;2.92;;
55539;SDS011;41384;51.418;7.286;2022-08-21T00:09:39;6.78;;;2.92;;
55539;SDS011;41384;51.418;7.286;2022-08-21T00:12:04;6.40;;;2.88;;
55539;SDS011;41384;51.418;7.286;2022-08-21T00:14:30;8.77;;;2.95;;
55539;SDS011;41384;51.418;7.286;2022-08-21T00:16:56;7.28;;;2.95;;
55539;SDS011;41384;51.418;7.286;2022-08-21T00:19:21;8.23;;;3.17;;
55539;SDS011;41384;51.418;7.286;2022-08-21T00:21:49;8.52;;;3.53;;
55539;SDS011;41384;51.418;7.286;2022-08-21T00:24:16;5.22;;;3.20;;
55539;SDS011;41384;51.418;7.286;2022-08-21T00:26:41;7.88;;;3.40;;
55539;SDS011;41384;51.418;7.286;2022-08-21T00:29:08;8.95;;;3.40;;
55539;SDS011;41384;51.418;7.286;2022-08-21T00:31:33;6.32;;;2.92;;
55539;SDS011;41384;51.418;7.286;2022-08-21T00:33:58;6.20;;;3.10;;
55539;SDS011;41384;51.418;7.286;2022-08-21T00:36:23;8.32;;;3.05;;
55539;SDS011;41384;51.418;7.286;2022-08-21T00:38:49;5.45;;;2.92;;
55539;SDS011;41384;51.418;7.286;2022-08-21T00:41:14;8.50;;;3.50;;
55539;SDS011;41384;51.418;7.286;2022-08-21T00:43:39;8.07;;;3.38;;
55539;SDS011;41384;51.418;7.286;2022-08-21T00:46:05;7.13;;;3.25;;
55539;SDS011;41384;51.418;7.286;2022-08-21T00:48:31;8.27;;;2.90;;
55539;SDS011;41384;51.418;7.286;2022-08-21T00:50:58;7.75;;;3.10;;
55539;SDS011;41384;51.418;7.286;2022-08-21T00:53:29;11.10;;;3.20;;
55539;SDS011;41384;51.418;7.286;2022-08-21T00:55:55;7.97;;;3.17;;
55539;SDS011;41384;51.418;7.286;2022-08-21T00:58:21;8.80;;;2.85;;
55539;SDS011;41384;51.418;7.286;2022-08-21T01:00:48;7.20;;;3.33;;
55539;SDS011;41384;51.418;7.286;2022-08-21T01:03:17;8.18;;;3.75;;
55539;SDS011;41384;51.418;7.286;2022-08-21T01:05:45;6.07;;;2.90;;
55539;SDS011;41384;51.418;7.286;2022-08-21T01:08:11;6.13;;;3.35;;
55539;SDS011;41384;51.418;7.286;2022-08-21T01:10:40;5.35;;;3.08;;
55539;SDS011;41384;51.418;7.286;2022-08-21T01:13:06;7.00;;;2.92;;
55539;SDS011;41384;51.418;7.286;2022-08-21T01:15:35;9.07;;;3.05;;
55539;SDS011;41384;51.418;7.286;2022-08-21T01:18:03;7.20;;;3.25;;
55539;SDS011;41384;51.418;7.286;2022-08-21T01:20:31;8.93;;;3.15;;
55539;SDS011;41384;51.418;7.286;2022-08-21T01:22:56;8.90;;;3.20;;
55539;SDS011;41384;51.418;7.286;2022-08-21T01:25:22;5.65;;;2.70;;
55539;SDS011;41384;51.418;7.286;2022-08-21T01:27:47;7.40;;;3.00;;
55539;SDS011;41384;51.418;7.286;2022-08-21T01:30:14;6.65;;;3.08;;
55539;SDS011;41384;51.418;7.286;2022-08-21T01:32:43;6.75;;;2.88;;
55539;SDS011;41384;51.418;7.286;2022-08-21T01:35:08;7.65;;;4.07;;
55539;SDS011;41384;51.418;7.286;2022-08-21T01:37:34;6.70;;;3.35;;
55539;SDS011;41384;51.418;7.286;2022-08-21T01:39:59;10.20;;;3.45;;
55539;SDS011;41384;51.418;7.286;2022-08-21T01:42:25;8.35;;;2.97;;
55539;SDS011;41384;51.418;7.286;2022-08-21T01:44:51;6.50;;;2.83;;
55539;SDS011;41384;51.418;7.286;2022-08-21T01:47:16;7.78;;;2.70;;
55539;SDS011;41384;51.418;7.286;2022-08-21T01:49:43;5.10;;;2.70;;
55539;SDS011;41384;51.418;7.286;2022-08-21T01:52:09;10.18;;;3.45;;
55539;SDS011;41384;51.418;7.286;2022-08-21T01:54:36;7.53;;;3.40;;
55539;SDS011;41384;51.418;7.286;2022-08-21T01:57:02;8.75;;;3.30;;
55539;SDS011;41384;51.418;7.286;2022-08-21T01:59:29;5.97;;;3.17;;
55539;SDS011;41384;51.418;7.286;2022-08-21T02:01:54;6.93;;;3.03;;
55539;SDS011;41384;51.418;7.286;2022-08-21T02:04:20;8.15;;;3.05;;
55539;SDS011;41384;51.418;7.286;2022-08-21T02:06:46;6.38;;;3.53;;
55539;SDS011;41384;51.418;7.286;2022-08-21T02:09:11;5.25;;;3.45;;
55539;SDS011;41384;51.418;7.286;2022-08-21T02:11:38;8.45;;;3.83;;
55539;SDS011;41384;51.418;7.286;2022-08-21T02:14:05;6.80;;;3.15;;
55539;SDS011;41384;51.418;7.286;2022-08-21T02:16:31;7.70;;;3.45;;
55539;SDS011;41384;51.418;7.286;2022-08-21T02:18:57;8.18;;;3.70;;
55539;SDS011;41384;51.418;7.286;2022-08-21T02:21:22;5.88;;;3.17;;
55539;SDS011;41384;51.418;7.286;2022-08-21T02:23:47;5.65;;;4.10;;
55539;SDS011;41384;51.418;7.286;2022-08-21T02:26:13;8.30;;;3.90;;
55539;SDS011;41384;51.418;7.286;2022-08-21T02:28:38;6.32;;;3.55;;
55539;SDS011;41384;51.418;7.286;2022-08-21T02:31:05;5.07;;;3.55;;
55539;SDS011;41384;51.418;7.286;2022-08-21T02:33:30;6.82;;;3.83;;
55539;SDS011;41384;51.418;7.286;2022-08-21T02:35:56;6.40;;;3.50;;
55539;SDS011;41384;51.418;7.286;2022-08-21T02:38:23;9.77;;;3.85;;
55539;SDS011;41384;51.418;7.286;2022-08-21T02:40:51;7.68;;;3.72;;
55539;SDS011;41384;51.418;7.286;2022-08-21T02:43:19;6.05;;;3.50;;
55539;SDS011;41384;51.418;7.286;2022-08-21T02:45:46;6.53;;;3.75;;
55539;SDS011;41384;51.418;7.286;2022-08-21T02:48:13;6.88;;;3.55;;
55539;SDS011;41384;51.418;7.286;2022-08-21T02:50:43;5.20;;;3.60;;
55539;SDS011;41384;51.418;7.286;2022-08-21T02:53:11;6.68;;;3.28;;
55539;SDS011;41384;51.418;7.286;2022-08-21T02:55:40;7.30;;;3.80;;
55539;SDS011;41384;51.418;7.286;2022-08-21T02:58:06;7.50;;;3.70;;
55539;SDS011;41384;51.418;7.286;2022-08-21T03:00:33;8.32;;;3.95;;
55539;SDS011;41384;51.418;7.286;2022-08-21T03:03:00;8.88;;;4.43;;
55539;SDS011;41384;51.418;7.286;2022-08-21T03:05:27;8.40;;;3.83;;
55539;SDS011;41384;51.418;7.286;2022-08-21T03:07:54;9.52;;;3.58;;
55539;SDS011;41384;51.418;7.286;2022-08-21T03:10:20;8.30;;;3.80;;
55539;SDS011;41384;51.418;7.286;2022-08-21T03:12:47;9.68;;;3.40;;
55539;SDS011;41384;51.418;7.286;2022-08-21T03:15:15;6.93;;;3.97;;
55539;SDS011;41384;51.418;7.286;2022-08-21T03:17:44;8.20;;;3.55;;
55539;SDS011;41384;51.418;7.286;2022-08-21T03:20:18;6.93;;;3.70;;
55539;SDS011;41384;51.418;7.286;2022-08-21T03:22:45;8.20;;;4.05;;
55539;SDS011;41384;51.418;7.286;2022-08-21T03:25:11;14.00;;;4.30;;
55539;SDS011;41384;51.418;7.286;2022-08-21T03:27:36;10.88;;;4.43;;
55539;SDS011;41384;51.418;7.286;2022-08-21T03:30:03;7.07;;;4.03;;
55539;SDS011;41384;51.418;7.286;2022-08-21T03:32:30;7.97;;;3.80;;
55539;SDS011;41384;51.418;7.286;2022-08-21T03:34:56;7.82;;;3.95;;
55539;SDS011;41384;51.418;7.286;2022-08-21T03:37:22;6.82;;;3.45;;
55539;SDS011;41384;51.418;7.286;2022-08-21T03:39:47;8.88;;;3.50;;
55539;SDS011;41384;51.418;7.286;2022-08-21T03:42:12;6.38;;;3.38;;
55539;SDS011;41384;51.418;7.286;2022-08-21T03:44:37;5.95;;;3.47;;
55539;SDS011;41384;51.418;7.286;2022-08-21T03:47:04;11.38;;;4.30;;
55539;SDS011;41384;51.418;7.286;2022-08-21T03:49:30;7.22;;;3.90;;
55539;SDS011;41384;51.418;7.286;2022-08-21T03:51:56;10.15;;;4.05;;
55539;SDS011;41384;51.418;7.286;2022-08-21T03:54:21;9.07;;;3.95;;
55539;SDS011;41384;51.418;7.286;2022-08-21T03:56:46;8.80;;;4.18;;
55539;SDS011;41384;51.418;7.286;2022-08-21T03:59:12;7.85;;;3.90;;
55539;SDS011;41384;51.418;7.286;2022-08-21T04:01:37;5.30;;;3.60;;
55539;SDS011;41384;51.418;7.286;2022-08-21T04:04:03;6.68;;;3.88;;
55539;SDS011;41384;51.418;7.286;2022-08-21T04:06:30;8.30;;;4.32;;
55539;SDS011;41384;51.418;7.286;2022-08-21T04:08:55;6.72;;;4.32;;
55539;SDS011;41384;51.418;7.286;2022-08-21T04:11:20;10.45;;;3.90;;
55539;SDS011;41384;51.418;7.286;2022-08-21T04:13:46;6.85;;;4.20;;
55539;SDS011;41384;51.418;7.286;2022-08-21T04:16:12;11.88;;;3.88;;
55539;SDS011;41384;51.418;7.286;2022-08-21T04:18:38;8.43;;;3.88;;
55539;SDS011;41384;51.418;7.286;2022-08-21T04:21:03;7.70;;;3.60;;
55539;SDS011;41384;51.418;7.286;2022-08-21T04:23:30;11.68;;;4.72;;
55539;SDS011;41384;51.418;7.286;2022-08-21T04:25:55;12.48;;;4.35;;
55539;SDS011;41384;51.418;7.286;2022-08-21T04:28:22;5.07;;;3.58;;
55539;SDS011;41384;51.418;7.286;2022-08-21T04:30:50;9.25;;;3.80;;
55539;SDS011;41384;51.418;7.286;2022-08-21T04:33:16;7.25;;;4.18;;
55539;SDS011;41384;51.418;7.286;2022-08-21T04:35:42;7.32;;;4.20;;
55539;SDS011;41384;51.418;7.286;2022-08-21T04:38:08;8.15;;;3.78;;
55539;SDS011;41384;51.418;7.286;2022-08-21T04:40:34;7.50;;;3.40;;
55539;SDS011;41384;51.418;7.286;2022-08-21T04:43:03;6.53;;;3.80;;
55539;SDS011;41384;51.418;7.286;2022-08-21T04:45:32;7.35;;;4.53;;
55539;SDS011;41384;51.418;7.286;2022-08-21T04:48:00;9.60;;;4.82;;
55539;SDS011;41384;51.418;7.286;2022-08-21T04:50:34;9.38;;;4.43;;
55539;SDS011;41384;51.418;7.286;2022-08-21T04:53:08;6.45;;;3.72;;
55539;SDS011;41384;51.418;7.286;2022-08-21T04:55:39;9.30;;;3.75;;
55539;SDS011;41384;51.418;7.286;2022-08-21T04:58:07;8.18;;;4.18;;
55539;SDS011;41384;51.418;7.286;2022-08-21T05:00:34;7.32;;;4.03;;
55539;SDS011;41384;51.418;7.286;2022-08-21T05:03:00;10.57;;;4.18;;
55539;SDS011;41384;51.418;7.286;2022-08-21T05:05:28;6.30;;;3.80;;
55539;SDS011;41384;51.418;7.286;2022-08-21T05:07:54;8.05;;;3.63;;
55539;SDS011;41384;51.418;7.286;2022-08-21T05:10:21;8.77;;;3.60;;
55539;SDS011;41384;51.418;7.286;2022-08-21T05:12:47;6.18;;;3.22;;
55539;SDS011;41384;51.418;7.286;2022-08-21T05:15:13;7.38;;;3.60;;
55539;SDS011;41384;51.418;7.286;2022-08-21T05:17:38;5.43;;;3.30;;
55539;SDS011;41384;51.418;7.286;2022-08-21T05:20:04;4.97;;;3.33;;
55539;SDS011;41384;51.418;7.286;2022-08-21T05:22:30;5.68;;;3.53;;
55539;SDS011;41384;51.418;7.286;2022-08-21T05:24:56;6.85;;;3.20;;
55539;SDS011;41384;51.418;7.286;2022-08-21T05:27:22;8.25;;;3.65;;
55539;SDS011;41384;51.418;7.286;2022-08-21T05:29:47;4.28;;;3.35;;
55539;SDS011;41384;51.418;7.286;2022-08-21T05:32:13;9.02;;;4.20;;
55539;SDS011;41384;51.418;7.286;2022-08-21T05:34:39;9.70;;;3.65;;
55539;SDS011;41384;51.418;7.286;2022-08-21T05:37:04;8.73;;;4.10;;
55539;SDS011;41384;51.418;7.286;2022-08-21T05:39:31;4.72;;;3.10;;
55539;SDS011;41384;51.418;7.286;2022-08-21T05:41:56;7.93;;;3.28;;
55539;SDS011;41384;51.418;7.286;2022-08-21T05:44:21;7.88;;;3.50;;
55539;SDS011;41384;51.418;7.286;2022-08-21T05:46:47;7.75;;;3.60;;
55539;SDS011;41384;51.418;7.286;2022-08-21T05:49:12;11.43;;;3.72;;
55539;SDS011;41384;51.418;7.286;2022-08-21T05:51:39;9.27;;;3.72;;
55539;SDS011;41384;51.418;7.286;2022-08-21T05:54:06;8.40;;;3.35;;
55539;SDS011;41384;51.418;7.286;2022-08-21T05:56:31;9.27;;;4.07;;
55539;SDS011;41384;51.418;7.286;2022-08-21T05:58:57;7.80;;;4.22;;
55539;SDS011;41384;51.418;7.286;2022-08-21T06:01:22;10.40;;;3.92;;
55539;SDS011;41384;51.418;7.286;2022-08-21T06:03:48;6.80;;;4.25;;
55539;SDS011;41384;51.418;7.286;2022-08-21T06:06:13;7.25;;;4.18;;
55539;SDS011;41384;51.418;7.286;2022-08-21T06:08:39;8.23;;;3.70;;
55539;SDS011;41384;51.418;7.286;2022-08-21T06:11:04;8.38;;;4.18;;
55539;SDS011;41384;51.418;7.286;2022-08-21T06:13:30;10.07;;;4.15;;
55539;SDS011;41384;51.418;7.286;2022-08-21T06:16:10;7.85;;;4.35;;
55539;SDS011;41384;51.418;7.286;2022-08-21T06:18:38;9.93;;;4.20;;
55539;SDS011;41384;51.418;7.286;2022-08-21T06:21:05;6.95;;;3.83;;
55539;SDS011;41384;51.418;7.286;2022-08-21T06:23:31;5.88;;;3.75;;
55539;SDS011;41384;51.418;7.286;2022-08-21T06:25:57;12.50;;;4.20;;
55539;SDS011;41384;51.418;7.286;2022-08-21T06:28:22;8.60;;;4.05;;
55539;SDS011;41384;51.418;7.286;2022-08-21T06:30:48;10.98;;;4.25;;
55539;SDS011;41384;51.418;7.286;2022-08-21T06:33:13;8.73;;;4.18;;
55539;SDS011;41384;51.418;7.286;2022-08-21T06:35:39;8.90;;;4.93;;
55539;SDS011;41384;51.418;7.286;2022-08-21T06:38:04;10.63;;;5.22;;
55539;SDS011;41384;51.418;7.286;2022-08-21T06:40:30;9.65;;;5.35;;
55539;SDS011;41384;51.418;7.286;2022-08-21T06:42:55;7.93;;;5.18;;
55539;SDS011;41384;51.418;7.286;2022-08-21T06:45:22;8.50;;;6.03;;
55539;SDS011;41384;51.418;7.286;2022-08-21T06:47:49;10.77;;;6.20;;
55539;SDS011;41384;51.418;7.286;2022-08-21T06:50:14;12.95;;;6.60;;
55539;SDS011;41384;51.418;7.286;2022-08-21T06:52:39;12.15;;;6.65;;
55539;SDS011;41384;51.418;7.286;2022-08-21T06:55:05;12.65;;;7.57;;
55539;SDS011;41384;51.418;7.286;2022-08-21T06:57:33;11.98;;;6.85;;
55539;SDS011;41384;51.418;7.286;2022-08-21T06:59:58;14.43;;;7.60;;
55539;SDS011;41384;51.418;7.286;2022-08-21T07:02:24;11.52;;;7.57;;
55539;SDS011;41384;51.418;7.286;2022-08-21T07:04:49;10.77;;;7.10;;
55539;SDS011;41384;51.418;7.286;2022-08-21T07:07:15;17.35;;;7.93;;
55539;SDS011;41384;51.418;7.286;2022-08-21T07:09:41;14.73;;;7.97;;
55539;SDS011;41384;51.418;7.286;2022-08-21T07:12:06;10.85;;;7.00;;
55539;SDS011;41384;51.418;7.286;2022-08-21T07:14:32;12.68;;;7.43;;
55539;SDS011;41384;51.418;7.286;2022-08-21T07:16:57;14.13;;;7.57;;
55539;SDS011;41384;51.418;7.286;2022-08-21T07:19:22;13.85;;;7.22;;
55539;SDS011;41384;51.418;7.286;2022-08-21T07:21:48;12.82;;;7.75;;
55539;SDS011;41384;51.418;7.286;2022-08-21T07:24:13;13.88;;;6.93;;
55539;SDS011;41384;51.418;7.286;2022-08-21T07:26:39;13.57;;;7.40;;
55539;SDS011;41384;51.418;7.286;2022-08-21T07:29:05;11.45;;;6.68;;
55539;SDS011;41384;51.418;7.286;2022-08-21T07:31:30;13.35;;;6.55;;
55539;SDS011;41384;51.418;7.286;2022-08-21T07:33:56;12.27;;;7.93;;
55539;SDS011;41384;51.418;7.286;2022-08-21T07:36:21;11.93;;;7.88;;
55539;SDS011;41384;51.418;7.286;2022-08-21T07:38:47;13.23;;;7.32;;
55539;SDS011;41384;51.418;7.286;2022-08-21T07:41:14;16.45;;;7.95;;
55539;SDS011;41384;51.418;7.286;2022-08-21T07:43:41;15.10;;;7.15;;
55539;SDS011;41384;51.418;7.286;2022-08-21T07:46:07;26.15;;;8.32;;
55539;SDS011;41384;51.418;7.286;2022-08-21T07:48:32;15.25;;;7.47;;
55539;SDS011;41384;51.418;7.286;2022-08-21T07:50:58;11.65;;;6.68;;
55539;SDS011;41384;51.418;7.286;2022-08-21T07:53:27;13.07;;;6.40;;
55539;SDS011;41384;51.418;7.286;2022-08-21T07:55:52;13.93;;;6.30;;
55539;SDS011;41384;51.418;7.286;2022-08-21T07:58:17;12.73;;;5.70;;
55539;SDS011;41384;51.418;7.286;2022-08-21T08:00:43;9.38;;;4.30;;
55539;SDS011;41384;51.418;7.286;2022-08-21T08:03:08;8.85;;;4.05;;
55539;SDS011;41384;51.418;7.286;2022-08-21T08:05:33;9.95;;;3.38;;
55539;SDS011;41384;51.418;7.286;2022-08-21T08:08:02;6.32;;;3.25;;
55539;SDS011;41384;51.418;7.286;2022-08-21T08:10:27;9.30;;;3.25;;
55539;SDS011;41384;51.418;7.286;2022-08-21T08:12:53;7.65;;;2.85;;
55539;SDS011;41384;51.418;7.286;2022-08-21T08:15:21;6.25;;;2.47;;
55539;SDS011;41384;51.418;7.286;2022-08-21T08:17:49;4.82;;;2.05;;
55539;SDS011;41384;51.418;7.286;2022-08-21T08:20:15;8.60;;;2.45;;
55539;SDS011;41384;51.418;7.286;2022-08-21T08:22:43;6.50;;;2.85;;
55539;SDS011;41384;51.418;7.286;2022-08-21T08:25:10;5.43;;;2.40;;
55539;SDS011;41384;51.418;7.286;2022-08-21T08:27:37;8.45;;;2.50;;
55539;SDS011;41384;51.418;7.286;2022-08-21T08:30:03;5.05;;;2.13;;
55539;SDS011;41384;51.418;7.286;2022-08-21T08:32:30;7.47;;;2.60;;
55539;SDS011;41384;51.418;7.286;2022-08-21T08:34:56;11.27;;;2.80;;
55539;SDS011;41384;51.418;7.286;2022-08-21T08:37:21;7.85;;;2.85;;
55539;SDS011;41384;51.418;7.286;2022-08-21T08:39:46;7.30;;;2.85;;
55539;SDS011;41384;51.418;7.286;2022-08-21T08:42:31;5.07;;;2.47;;
55539;SDS011;41384;51.418;7.286;2022-08-21T08:45:03;7.18;;;2.55;;
55539;SDS011;41384;51.418;7.286;2022-08-21T08:47:34;6.75;;;2.28;;
55539;SDS011;41384;51.418;7.286;2022-08-21T08:50:25;4.97;;;2.00;;
55539;SDS011;41384;51.418;7.286;2022-08-21T08:52:59;7.25;;;2.20;;
55539;SDS011;41384;51.418;7.286;2022-08-21T08:55:36;5.57;;;2.00;;
55539;SDS011;41384;51.418;7.286;2022-08-21T08:58:04;6.07;;;1.70;;
55539;SDS011;41384;51.418;7.286;2022-08-21T09:00:30;5.75;;;2.20;;
55539;SDS011;41384;51.418;7.286;2022-08-21T09:02:57;7.32;;;1.90;;
55539;SDS011;41384;51.418;7.286;2022-08-21T09:05:26;8.40;;;2.35;;
55539;SDS011;41384;51.418;7.286;2022-08-21T09:08:14;9.68;;;2.10;;
55539;SDS011;41384;51.418;7.286;2022-08-21T09:11:06;4.53;;;1.98;;
55539;SDS011;41384;51.418;7.286;2022-08-21T09:13:52;4.30;;;1.75;;
55539;SDS011;41384;51.418;7.286;2022-08-21T09:22:29;5.35;;;2.05;;
55539;SDS011;41384;51.418;7.286;2022-08-21T09:25:18;6.55;;;2.20;;
55539;SDS011;41384;51.418;7.286;2022-08-21T09:27:48;4.40;;;2.08;;
55539;SDS011;41384;51.418;7.286;2022-08-21T09:30:14;6.03;;;2.00;;
55539;SDS011;41384;51.418;7.286;2022-08-21T09:32:40;5.57;;;2.00;;
55539;SDS011;41384;51.418;7.286;2022-08-21T09:35:11;7.10;;;2.08;;
55539;SDS011;41384;51.418;7.286;2022-08-21T09:40:21;4.70;;;1.80;;
55539;SDS011;41384;51.418;7.286;2022-08-21T09:42:57;4.70;;;1.83;;
55539;SDS011;41384;51.418;7.286;2022-08-21T09:45:25;5.78;;;1.60;;
55539;SDS011;41384;51.418;7.286;2022-08-21T09:47:51;4.72;;;1.90;;
55539;SDS011;41384;51.418;7.286;2022-08-21T09:50:19;5.90;;;1.60;;
55539;SDS011;41384;51.418;7.286;2022-08-21T09:52:51;6.72;;;1.50;;
55539;SDS011;41384;51.418;7.286;2022-08-21T09:55:30;6.68;;;2.10;;
55539;SDS011;41384;51.418;7.286;2022-08-21T09:58:34;7.40;;;2.00;;
55539;SDS011;41384;51.418;7.286;2022-08-21T10:01:02;6.82;;;1.60;;
55539;SDS011;41384;51.418;7.286;2022-08-21T10:03:30;4.28;;;1.67;;
55539;SDS011;41384;51.418;7.286;2022-08-21T10:05:59;5.35;;;1.83;;
55539;SDS011;41384;51.418;7.286;2022-08-21T10:08:30;4.88;;;1.90;;
55539;SDS011;41384;51.418;7.286;2022-08-21T10:10:57;5.88;;;2.45;;
55539;SDS011;41384;51.418;7.286;2022-08-21T10:13:40;4.35;;;1.60;;
55539;SDS011;41384;51.418;7.286;2022-08-21T10:18:41;4.13;;;1.40;;
55539;SDS011;41384;51.418;7.286;2022-08-21T10:21:32;4.28;;;1.50;;
55539;SDS011;41384;51.418;7.286;2022-08-21T10:26:35;7.00;;;1.52;;
55539;SDS011;41384;51.418;7.286;2022-08-21T10:42:29;7.93;;;1.60;;
55539;SDS011;41384;51.418;7.286;2022-08-21T10:47:35;5.07;;;1.47;;
55539;SDS011;41384;51.418;7.286;2022-08-21T10:50:23;3.45;;;1.30;;
55539;SDS011;41384;51.418;7.286;2022-08-21T10:55:43;6.40;;;1.30;;
55539;SDS011;41384;51.418;7.286;2022-08-21T10:58:22;4.40;;;1.30;;
55539;SDS011;41384;51.418;7.286;2022-08-21T11:01:11;5.28;;;1.55;;
55539;SDS011;41384;51.418;7.286;2022-08-21T11:03:41;3.63;;;1.33;;
55539;SDS011;41384;51.418;7.286;2022-08-21T11:06:18;4.72;;;1.25;;
55539;SDS011;41384;51.418;7.286;2022-08-21T11:08:53;4.97;;;1.38;;
55539;SDS011;41384;51.418;7.286;2022-08-21T11:11:29;7.25;;;1.40;;
55539;SDS011;41384;51.418;7.286;2022-08-21T11:14:00;4.47;;;1.02;;
55539;SDS011;41384;51.418;7.286;2022-08-21T11:16:49;4.55;;;1.10;;
55539;SDS011;41384;51.418;7.286;2022-08-21T11:30:16;2.90;;;0.70;;
55539;SDS011;41384;51.418;7.286;2022-08-21T11:43:53;3.95;;;1.10;;
55539;SDS011;41384;51.418;7.286;2022-08-21T11:54:42;4.28;;;1.00;;
55539;SDS011;41384;51.418;7.286;2022-08-21T11:59:47;3.15;;;0.90;;
55539;SDS011;41384;51.418;7.286;2022-08-21T12:02:24;4.93;;;1.10;;
55539;SDS011;41384;51.418;7.286;2022-08-21T12:04:55;3.90;;;0.98;;
55539;SDS011;41384;51.418;7.286;2022-08-21T12:07:30;5.65;;;0.93;;
55539;SDS011;41384;51.418;7.286;2022-08-21T12:09:56;3.20;;;1.00;;
55539;SDS011;41384;51.418;7.286;2022-08-21T12:12:24;2.70;;;0.80;;
55539;SDS011;41384;51.418;7.286;2022-08-21T12:14:50;2.30;;;0.90;;
55539;SDS011;41384;51.418;7.286;2022-08-21T12:17:34;4.20;;;0.90;;
55539;SDS011;41384;51.418;7.286;2022-08-21T12:20:25;3.45;;;0.90;;
55539;SDS011;41384;51.418;7.286;2022-08-21T12:28:46;2.92;;;0.80;;
55539;SDS011;41384;51.418;7.286;2022-08-21T12:31:19;2.67;;;0.90;;
55539;SDS011;41384;51.418;7.286;2022-08-21T12:33:58;2.30;;;0.80;;
55539;SDS011;41384;51.418;7.286;2022-08-21T12:36:30;3.00;;;0.75;;
55539;SDS011;41384;51.418;7.286;2022-08-21T12:39:26;3.00;;;1.00;;
55539;SDS011;41384;51.418;7.286;2022-08-21T12:44:51;3.10;;;0.98;;
55539;SDS011;41384;51.418;7.286;2022-08-21T12:50:03;4.13;;;0.60;;
55539;SDS011;41384;51.418;7.286;2022-08-21T12:53:52;2.50;;;0.70;;
55539;SDS011;41384;51.418;7.286;2022-08-21T12:55:50;2.58;;;0.68;;
55539;SDS011;41384;51.418;7.286;2022-08-21T12:58:17;1.90;;;0.60;;
55539;SDS011;41384;51.418;7.286;2022-08-21T13:00:47;0.75;;;0.60;;
55539;SDS011;41384;51.418;7.286;2022-08-21T13:03:19;3.55;;;0.80;;
55539;SDS011;41384;51.418;7.286;2022-08-21T13:05:47;2.72;;;0.70;;
55539;SDS011;41384;51.418;7.286;2022-08-21T13:08:13;2.15;;;0.80;;
55539;SDS011;41384;51.418;7.286;2022-08-21T13:10:39;2.58;;;0.77;;
55539;SDS011;41384;51.418;7.286;2022-08-21T13:13:08;3.08;;;0.90;;
55539;SDS011;41384;51.418;7.286;2022-08-21T13:15:38;1.48;;;0.60;;
55539;SDS011;41384;51.418;7.286;2022-08-21T13:18:05;2.50;;;0.77;;
55539;SDS011;41384;51.418;7.286;2022-08-21T13:20:35;1.73;;;0.65;;
55539;SDS011;41384;51.418;7.286;2022-08-21T13:23:03;2.80;;;0.80;;
55539;SDS011;41384;51.418;7.286;2022-08-21T13:25:40;3.53;;;0.80;;
55539;SDS011;41384;51.418;7.286;2022-08-21T13:28:07;3.05;;;0.75;;
55539;SDS011;41384;51.418;7.286;2022-08-21T13:30:45;5.25;;;0.90;;
55539;SDS011;41384;51.418;7.286;2022-08-21T13:33:13;2.42;;;1.17;;
55539;SDS011;41384;51.418;7.286;2022-08-21T13:35:52;3.78;;;0.75;;
55539;SDS011;41384;51.418;7.286;2022-08-21T13:38:30;3.20;;;0.90;;
55539;SDS011;41384;51.418;7.286;2022-08-21T13:40:58;2.17;;;0.60;;
55539;SDS011;41384;51.418;7.286;2022-08-21T13:43:31;4.70;;;0.75;;
55539;SDS011;41384;51.418;7.286;2022-08-21T13:45:58;2.13;;;0.90;;
55539;SDS011;41384;51.418;7.286;2022-08-21T13:48:26;3.22;;;1.05;;
55539;SDS011;41384;51.418;7.286;2022-08-21T13:50:54;2.97;;;0.80;;
55539;SDS011;41384;51.418;7.286;2022-08-21T13:53:23;2.78;;;1.00;;
55539;SDS011;41384;51.418;7.286;2022-08-21T13:55:54;1.23;;;0.70;;
55539;SDS011;41384;51.418;7.286;2022-08-21T13:58:41;2.63;;;0.75;;
55539;SDS011;41384;51.418;7.286;2022-08-21T14:01:19;2.05;;;0.60;;
55539;SDS011;41384;51.418;7.286;2022-08-21T14:03:47;3.63;;;0.82;;
55539;SDS011;41384;51.418;7.286;2022-08-21T14:06:20;2.50;;;0.82;;
55539;SDS011;41384;51.418;7.286;2022-08-21T14:08:49;2.50;;;0.80;;
55539;SDS011;41384;51.418;7.286;2022-08-21T14:11:17;3.00;;;0.80;;
55539;SDS011;41384;51.418;7.286;2022-08-21T14:13:44;2.35;;;0.68;;
55539;SDS011;41384;51.418;7.286;2022-08-21T14:16:15;1.70;;;0.70;;
55539;SDS011;41384;51.418;7.286;2022-08-21T14:18:54;2.15;;;0.52;;
55539;SDS011;41384;51.418;7.286;2022-08-21T14:21:37;2.60;;;0.70;;
55539;SDS011;41384;51.418;7.286;2022-08-21T14:24:09;2.70;;;0.73;;
55539;SDS011;41384;51.418;7.286;2022-08-21T14:26:42;2.75;;;0.77;;
55539;SDS011;41384;51.418;7.286;2022-08-21T14:29:11;3.88;;;0.98;;
55539;SDS011;41384;51.418;7.286;2022-08-21T14:31:39;2.10;;;0.90;;
55539;SDS011;41384;51.418;7.286;2022-08-21T14:34:04;1.67;;;0.60;;
55539;SDS011;41384;51.418;7.286;2022-08-21T14:36:29;1.27;;;0.52;;
55539;SDS011;41384;51.418;7.286;2022-08-21T14:38:55;2.88;;;0.60;;
55539;SDS011;41384;51.418;7.286;2022-08-21T14:41:24;2.75;;;0.65;;
55539;SDS011;41384;51.418;7.286;2022-08-21T14:46:20;2.47;;;0.60;;
55539;SDS011;41384;51.418;7.286;2022-08-21T14:48:48;2.88;;;0.70;;
55539;SDS011;41384;51.418;7.286;2022-08-21T14:51:14;4.18;;;0.70;;
55539;SDS011;41384;51.418;7.286;2022-08-21T14:53:39;0.98;;;0.45;;
55539;SDS011;41384;51.418;7.286;2022-08-21T14:56:05;1.65;;;0.60;;
55539;SDS011;41384;51.418;7.286;2022-08-21T14:58:31;4.32;;;0.70;;
55539;SDS011;41384;51.418;7.286;2022-08-21T15:00:57;3.20;;;0.80;;
55539;SDS011;41384;51.418;7.286;2022-08-21T15:03:24;0.65;;;0.52;;
55539;SDS011;41384;51.418;7.286;2022-08-21T15:05:50;2.33;;;0.70;;
55539;SDS011;41384;51.418;7.286;2022-08-21T15:08:16;1.52;;;0.60;;
55539;SDS011;41384;51.418;7.286;2022-08-21T15:10:43;2.30;;;0.80;;
55539;SDS011;41384;51.418;7.286;2022-08-21T15:13:09;1.65;;;0.75;;
55539;SDS011;41384;51.418;7.286;2022-08-21T15:15:37;3.28;;;1.10;;
55539;SDS011;41384;51.418;7.286;2022-08-21T15:18:05;2.85;;;1.30;;
55539;SDS011;41384;51.418;7.286;2022-08-21T15:20:30;2.47;;;0.88;;
55539;SDS011;41384;51.418;7.286;2022-08-21T15:22:56;1.42;;;0.80;;
55539;SDS011;41384;51.418;7.286;2022-08-21T15:25:21;2.17;;;0.80;;
55539;SDS011;41384;51.418;7.286;2022-08-21T15:27:46;2.35;;;1.13;;
55539;SDS011;41384;51.418;7.286;2022-08-21T15:30:12;5.85;;;1.17;;
55539;SDS011;41384;51.418;7.286;2022-08-21T15:32:37;1.45;;;0.90;;
55539;SDS011;41384;51.418;7.286;2022-08-21T15:35:04;3.20;;;0.85;;
55539;SDS011;41384;51.418;7.286;2022-08-21T15:37:29;1.92;;;0.75;;
55539;SDS011;41384;51.418;7.286;2022-08-21T15:39:55;3.72;;;1.00;;
55539;SDS011;41384;51.418;7.286;2022-08-21T15:42:21;3.38;;;1.10;;
55539;SDS011;41384;51.418;7.286;2022-08-21T15:44:47;3.17;;;0.80;;
55539;SDS011;41384;51.418;7.286;2022-08-21T15:47:14;3.20;;;1.20;;
55539;SDS011;41384;51.418;7.286;2022-08-21T15:49:42;2.28;;;0.80;;
55539;SDS011;41384;51.418;7.286;2022-08-21T15:52:10;2.22;;;0.90;;
55539;SDS011;41384;51.418;7.286;2022-08-21T15:54:36;1.98;;;0.88;;
55539;SDS011;41384;51.418;7.286;2022-08-21T15:57:01;1.65;;;0.70;;
55539;SDS011;41384;51.418;7.286;2022-08-21T15:59:27;1.77;;;1.00;;
55539;SDS011;41384;51.418;7.286;2022-08-21T16:01:54;2.13;;;0.70;;
55539;SDS011;41384;51.418;7.286;2022-08-21T16:04:25;1.95;;;0.65;;
55539;SDS011;41384;51.418;7.286;2022-08-21T16:06:52;2.58;;;0.90;;
55539;SDS011;41384;51.418;7.286;2022-08-21T16:09:18;3.22;;;0.73;;
55539;SDS011;41384;51.418;7.286;2022-08-21T16:11:44;2.47;;;0.73;;
55539;SDS011;41384;51.418;7.286;2022-08-21T16:14:11;2.60;;;0.90;;